sensor_id;sensor_type;location;lat;lon;timestamp;pressure;altitude;pressure_sealevel;temperature;humidity
21361;BME280;10839;43.206;23.550;2023-02-28T00:00:34;97809.84;;;6.75;100.00
21361;BME280;10839;43.206;23.550;2023-02-28T00:03:01;97803.00;;;6.55;100.00
21361;BME280;10839;43.206;23.550;2023-02-28T00:05:28;97797.78;;;6.36;100.00
21361;BME280;10839;43.206;23.550;2023-02-28T00:07:55;97802.28;;;6.35;100.00
21361;BME280;10839;43.206;23.550;2023-02-28T00:10:25;97799.50;;;6.37;100.00
21361;BME280;10839;43.206;23.550;2023-02-28T00:12:53;97806.75;;;6.27;100.00
21361;BME280;10839;43.206;23.550;2023-02-28T00:15:22;97821.63;;;6.47;100.00
21361;BME280;10839;43.206;23.550;2023-02-28T00:17:49;97818.41;;;6.26;100.00
21361;BME280;10839;43.206;23.550;2023-02-28T00:20:15;97821.22;;;6.24;100.00
21361;BME280;10839;43.206;23.550;2023-02-28T00:22:44;97824.59;;;6.26;100.00
21361;BME280;10839;43.206;23.550;2023-02-28T00:25:12;97823.66;;;6.35;100.00
21361;BME280;10839;43.206;23.550;2023-02-28T00:27:40;97826.72;;;6.23;100.00
21361;BME280;10839;43.206;23.550;2023-02-28T00:30:09;97829.72;;;6.55;100.00
21361;BME280;10839;43.206;23.550;2023-02-28T00:32:37;97844.38;;;6.51;100.00
21361;BME280;10839;43.206;23.550;2023-02-28T00:35:03;97839.66;;;6.45;100.00
21361;BME280;10839;43.206;23.550;2023-02-28T00:37:29;97839.47;;;6.29;100.00
21361;BME280;10839;43.206;23.550;2023-02-28T00:39:55;97837.50;;;6.31;100.00
21361;BME280;10839;43.206;23.550;2023-02-28T00:42:21;97837.50;;;6.31;100.00
21361;BME280;10839;43.206;23.550;2023-02-28T00:44:47;97842.53;;;6.34;100.00
21361;BME280;10839;43.206;23.550;2023-02-28T00:47:13;97847.34;;;6.30;100.00
21361;BME280;10839;43.206;23.550;2023-02-28T00:49:39;97851.25;;;6.36;100.00
21361;BME280;10839;43.206;23.550;2023-02-28T00:52:05;97854.84;;;6.62;100.00
21361;BME280;10839;43.206;23.550;2023-02-28T00:54:31;97858.44;;;6.88;100.00
21361;BME280;10839;43.206;23.550;2023-02-28T00:56:57;97859.94;;;7.08;100.00
21361;BME280;10839;43.206;23.550;2023-02-28T00:59:24;97866.63;;;7.12;100.00
21361;BME280;10839;43.206;23.550;2023-02-28T01:01:50;97864.31;;;7.17;100.00
21361;BME280;10839;43.206;23.550;2023-02-28T01:04:28;97863.34;;;7.18;100.00
21361;BME280;10839;43.206;23.550;2023-02-28T01:06:54;97871.81;;;7.31;100.00
21361;BME280;10839;43.206;23.550;2023-02-28T01:09:20;97862.03;;;7.48;100.00
21361;BME280;10839;43.206;23.550;2023-02-28T01:11:46;97862.44;;;7.35;100.00
21361;BME280;10839;43.206;23.550;2023-02-28T01:14:13;97865.06;;;7.27;100.00
21361;BME280;10839;43.206;23.550;2023-02-28T01:16:40;97870.00;;;7.14;100.00
21361;BME280;10839;43.206;23.550;2023-02-28T01:19:06;97876.94;;;7.25;100.00
21361;BME280;10839;43.206;23.550;2023-02-28T01:21:32;97870.00;;;7.14;100.00
21361;BME280;10839;43.206;23.550;2023-02-28T01:24:00;97878.19;;;7.13;100.00
21361;BME280;10839;43.206;23.550;2023-02-28T01:26:26;97874.84;;;7.36;100.00
21361;BME280;10839;43.206;23.550;2023-02-28T01:28:52;97862.34;;;7.19;100.00
21361;BME280;10839;43.206;23.550;2023-02-28T01:31:19;97866.78;;;7.28;100.00
21361;BME280;10839;43.206;23.550;2023-02-28T01:33:46;97872.19;;;7.19;100.00
21361;BME280;10839;43.206;23.550;2023-02-28T01:36:13;97865.44;;;7.32;100.00
21361;BME280;10839;43.206;23.550;2023-02-28T01:38:40;97865.91;;;7.28;100.00
21361;BME280;10839;43.206;23.550;2023-02-28T01:41:07;97861.59;;;7.09;100.00
21361;BME280;10839;43.206;23.550;2023-02-28T01:46:13;97857.97;;;6.93;100.00
21361;BME280;10839;43.206;23.550;2023-02-28T01:49:05;97863.91;;;7.04;100.00
21361;BME280;10839;43.206;23.550;2023-02-28T01:51:43;97867.16;;;6.90;100.00
21361;BME280;10839;43.206;23.550;2023-02-28T01:54:26;97861.41;;;7.28;100.00
21361;BME280;10839;43.206;23.550;2023-02-28T01:56:56;97848.69;;;7.30;100.00
21361;BME280;10839;43.206;23.550;2023-02-28T01:59:31;97862.97;;;7.39;100.00
21361;BME280;10839;43.206;23.550;2023-02-28T02:02:02;97868.13;;;7.32;100.00
21361;BME280;10839;43.206;23.550;2023-02-28T02:04:34;97871.81;;;7.14;100.00
21361;BME280;10839;43.206;23.550;2023-02-28T02:07:03;97879.50;;;6.91;100.00
21361;BME280;10839;43.206;23.550;2023-02-28T02:09:30;97871.56;;;6.99;100.00
21361;BME280;10839;43.206;23.550;2023-02-28T02:11:56;97871.59;;;7.25;100.00
21361;BME280;10839;43.206;23.550;2023-02-28T02:20:07;97874.56;;;6.79;100.00
21361;BME280;10839;43.206;23.550;2023-02-28T02:31:48;97868.06;;;6.46;100.00
21361;BME280;10839;43.206;23.550;2023-02-28T02:34:17;97874.66;;;6.24;100.00
21361;BME280;10839;43.206;23.550;2023-02-28T02:40:22;97876.59;;;6.32;100.00
21361;BME280;10839;43.206;23.550;2023-02-28T02:43:13;97873.25;;;6.30;100.00
21361;BME280;10839;43.206;23.550;2023-02-28T02:45:56;97867.59;;;6.33;100.00
21361;BME280;10839;43.206;23.550;2023-02-28T02:48:26;97867.41;;;6.17;100.00
21361;BME280;10839;43.206;23.550;2023-02-28T02:51:03;97877.53;;;6.58;100.00
21361;BME280;10839;43.206;23.550;2023-02-28T02:53:36;97882.88;;;6.93;100.00
21361;BME280;10839;43.206;23.550;2023-02-28T02:56:05;97890.09;;;6.75;100.00
21361;BME280;10839;43.206;23.550;2023-02-28T02:58:37;97880.72;;;6.79;100.00
21361;BME280;10839;43.206;23.550;2023-02-28T03:01:16;97885.00;;;6.72;100.00
21361;BME280;10839;43.206;23.550;2023-02-28T03:03:59;97889.19;;;6.39;100.00
21361;BME280;10839;43.206;23.550;2023-02-28T03:06:27;97893.88;;;6.55;100.00
21361;BME280;10839;43.206;23.550;2023-02-28T03:08:53;97891.59;;;6.60;100.00
21361;BME280;10839;43.206;23.550;2023-02-28T03:11:21;97885.63;;;6.48;100.00
21361;BME280;10839;43.206;23.550;2023-02-28T03:14:32;97891.41;;;6.44;100.00
21361;BME280;10839;43.206;23.550;2023-02-28T03:17:30;97890.94;;;6.31;100.00
21361;BME280;10839;43.206;23.550;2023-02-28T03:22:39;97892.34;;;6.35;100.00
21361;BME280;10839;43.206;23.550;2023-02-28T03:30:32;97905.09;;;6.41;100.00
21361;BME280;10839;43.206;23.550;2023-02-28T03:33:08;97915.19;;;6.82;100.00
21361;BME280;10839;43.206;23.550;2023-02-28T03:35:45;97909.94;;;6.90;100.00
21361;BME280;10839;43.206;23.550;2023-02-28T03:38:48;97918.69;;;7.18;100.00
21361;BME280;10839;43.206;23.550;2023-02-28T03:41:23;97930.25;;;6.83;100.00
21361;BME280;10839;43.206;23.550;2023-02-28T03:43:56;97921.94;;;6.86;100.00
21361;BME280;10839;43.206;23.550;2023-02-28T03:46:26;97928.75;;;6.98;100.00
21361;BME280;10839;43.206;23.550;2023-02-28T03:49:14;97923.97;;;6.92;100.00
21361;BME280;10839;43.206;23.550;2023-02-28T03:51:43;97923.75;;;6.86;100.00
21361;BME280;10839;43.206;23.550;2023-02-28T03:54:26;97923.53;;;6.79;100.00
21361;BME280;10839;43.206;23.550;2023-02-28T03:59:52;97930.94;;;6.68;100.00
21361;BME280;10839;43.206;23.550;2023-02-28T04:02:20;97928.97;;;6.70;100.00
21361;BME280;10839;43.206;23.550;2023-02-28T04:04:45;97921.00;;;6.60;100.00
21361;BME280;10839;43.206;23.550;2023-02-28T04:07:15;97919.94;;;6.71;100.00
21361;BME280;10839;43.206;23.550;2023-02-28T04:09:41;97928.72;;;6.63;100.00
21361;BME280;10839;43.206;23.550;2023-02-28T04:12:08;97936.59;;;6.65;100.00
21361;BME280;10839;43.206;23.550;2023-02-28T04:14:34;97942.78;;;6.65;100.00
21361;BME280;10839;43.206;23.550;2023-02-28T04:17:00;97938.44;;;6.99;100.00
21361;BME280;10839;43.206;23.550;2023-02-28T04:19:25;97940.44;;;6.80;100.00
21361;BME280;10839;43.206;23.550;2023-02-28T04:21:52;97943.13;;;6.53;100.00
21361;BME280;10839;43.206;23.550;2023-02-28T04:24:26;97936.97;;;6.52;100.00
21361;BME280;10839;43.206;23.550;2023-02-28T04:26:54;97945.06;;;6.60;100.00
21361;BME280;10839;43.206;23.550;2023-02-28T04:29:23;97942.00;;;6.55;100.00
21361;BME280;10839;43.206;23.550;2023-02-28T04:31:50;97951.59;;;6.75;100.00
21361;BME280;10839;43.206;23.550;2023-02-28T04:34:16;97943.56;;;6.75;100.00
21361;BME280;10839;43.206;23.550;2023-02-28T04:36:44;97959.41;;;6.59;100.00
21361;BME280;10839;43.206;23.550;2023-02-28T04:39:11;97952.72;;;6.73;100.00
21361;BME280;10839;43.206;23.550;2023-02-28T04:41:37;97962.44;;;6.74;100.00
21361;BME280;10839;43.206;23.550;2023-02-28T04:44:03;97955.00;;;6.50;100.00
21361;BME280;10839;43.206;23.550;2023-02-28T04:46:31;97962.09;;;6.59;100.00
21361;BME280;10839;43.206;23.550;2023-02-28T04:48:56;97959.31;;;6.78;100.00
21361;BME280;10839;43.206;23.550;2023-02-28T04:51:23;97961.34;;;6.67;100.00
21361;BME280;10839;43.206;23.550;2023-02-28T04:53:50;97955.81;;;6.50;100.00
21361;BME280;10839;43.206;23.550;2023-02-28T04:56:17;97954.25;;;6.75;100.00
21361;BME280;10839;43.206;23.550;2023-02-28T04:58:44;97949.09;;;6.64;100.00
21361;BME280;10839;43.206;23.550;2023-02-28T05:01:18;97945.97;;;6.51;100.00
21361;BME280;10839;43.206;23.550;2023-02-28T05:03:44;97954.94;;;6.77;100.00
21361;BME280;10839;43.206;23.550;2023-02-28T05:06:11;97956.81;;;6.67;100.00
21361;BME280;10839;43.206;23.550;2023-02-28T05:08:38;97948.72;;;6.59;100.00
21361;BME280;10839;43.206;23.550;2023-02-28T05:11:07;97951.97;;;6.80;100.00
21361;BME280;10839;43.206;23.550;2023-02-28T05:13:37;97956.25;;;6.73;100.00
21361;BME280;10839;43.206;23.550;2023-02-28T05:16:03;97953.00;;;6.52;100.00
21361;BME280;10839;43.206;23.550;2023-02-28T05:18:29;97954.38;;;6.56;100.00
21361;BME280;10839;43.206;23.550;2023-02-28T05:20:55;97953.19;;;6.68;100.00
21361;BME280;10839;43.206;23.550;2023-02-28T05:23:22;97949.09;;;6.46;100.00
21361;BME280;10839;43.206;23.550;2023-02-28T05:25:48;97960.50;;;6.66;100.00
21361;BME280;10839;43.206;23.550;2023-02-28T05:28:14;97960.19;;;6.69;100.00
21361;BME280;10839;43.206;23.550;2023-02-28T05:30:40;97971.97;;;6.59;100.00
21361;BME280;10839;43.206;23.550;2023-02-28T05:33:06;97969.31;;;6.49;100.00
21361;BME280;10839;43.206;23.550;2023-02-28T05:35:31;97988.25;;;6.65;100.00
21361;BME280;10839;43.206;23.550;2023-02-28T05:37:57;97988.44;;;6.54;100.00
21361;BME280;10839;43.206;23.550;2023-02-28T05:40:23;97991.88;;;6.64;100.00
21361;BME280;10839;43.206;23.550;2023-02-28T05:42:50;97990.44;;;6.52;100.00
21361;BME280;10839;43.206;23.550;2023-02-28T05:45:16;98000.72;;;6.47;100.00
21361;BME280;10839;43.206;23.550;2023-02-28T05:47:42;97999.19;;;6.44;100.00
21361;BME280;10839;43.206;23.550;2023-02-28T05:50:09;98000.91;;;6.63;100.00
21361;BME280;10839;43.206;23.550;2023-02-28T05:52:36;97998.06;;;6.47;100.00
21361;BME280;10839;43.206;23.550;2023-02-28T05:55:03;98009.94;;;6.35;100.00
21361;BME280;10839;43.206;23.550;2023-02-28T05:57:29;98012.19;;;6.30;100.00
21361;BME280;10839;43.206;23.550;2023-02-28T05:59:55;98011.16;;;6.40;100.00
21361;BME280;10839;43.206;23.550;2023-02-28T06:02:21;98013.88;;;6.31;100.00
21361;BME280;10839;43.206;23.550;2023-02-28T06:04:47;98012.69;;;6.43;100.00
21361;BME280;10839;43.206;23.550;2023-02-28T06:07:12;98007.00;;;6.28;100.00
21361;BME280;10839;43.206;23.550;2023-02-28T06:09:38;98015.34;;;6.16;100.00
21361;BME280;10839;43.206;23.550;2023-02-28T06:12:05;98027.13;;;6.23;100.00
21361;BME280;10839;43.206;23.550;2023-02-28T06:14:33;98018.25;;;6.32;100.00
21361;BME280;10839;43.206;23.550;2023-02-28T06:17:00;98026.03;;;6.16;100.00
21361;BME280;10839;43.206;23.550;2023-02-28T06:19:26;98024.31;;;6.24;100.00
21361;BME280;10839;43.206;23.550;2023-02-28T06:21:53;98024.47;;;6.23;100.00
21361;BME280;10839;43.206;23.550;2023-02-28T06:24:20;98024.88;;;6.28;100.00
21361;BME280;10839;43.206;23.550;2023-02-28T06:26:46;98019.50;;;6.28;100.00
21361;BME280;10839;43.206;23.550;2023-02-28T06:29:13;98032.09;;;6.45;100.00
21361;BME280;10839;43.206;23.550;2023-02-28T06:31:44;98028.25;;;6.30;100.00
21361;BME280;10839;43.206;23.550;2023-02-28T06:34:11;98030.59;;;6.33;100.00
21361;BME280;10839;43.206;23.550;2023-02-28T06:36:42;98030.81;;;6.49;100.00
21361;BME280;10839;43.206;23.550;2023-02-28T06:39:09;98025.66;;;6.38;100.00
21361;BME280;10839;43.206;23.550;2023-02-28T06:41:35;98033.47;;;6.22;100.00
21361;BME280;10839;43.206;23.550;2023-02-28T06:44:15;98024.81;;;6.37;100.00
21361;BME280;10839;43.206;23.550;2023-02-28T06:46:43;98020.00;;;6.41;100.00
21361;BME280;10839;43.206;23.550;2023-02-28T06:49:10;98036.97;;;6.32;100.00
21361;BME280;10839;43.206;23.550;2023-02-28T06:51:38;98032.91;;;6.55;100.00
21361;BME280;10839;43.206;23.550;2023-02-28T06:54:05;98029.59;;;6.43;100.00
21361;BME280;10839;43.206;23.550;2023-02-28T06:56:35;98025.47;;;6.22;100.00
21361;BME280;10839;43.206;23.550;2023-02-28T06:59:02;98036.06;;;6.41;100.00
21361;BME280;10839;43.206;23.550;2023-02-28T07:01:29;98027.06;;;6.42;100.00
21361;BME280;10839;43.206;23.550;2023-02-28T07:03:57;98037.22;;;6.29;100.00
21361;BME280;10839;43.206;23.550;2023-02-28T07:06:24;98040.59;;;6.31;100.00
21361;BME280;10839;43.206;23.550;2023-02-28T07:08:51;98044.97;;;6.59;100.00
21361;BME280;10839;43.206;23.550;2023-02-28T07:11:22;98042.31;;;6.32;100.00
21361;BME280;10839;43.206;23.550;2023-02-28T07:13:54;98039.63;;;6.59;100.00
21361;BME280;10839;43.206;23.550;2023-02-28T07:16:22;98034.81;;;6.63;100.00
21361;BME280;10839;43.206;23.550;2023-02-28T07:18:48;98033.22;;;6.52;100.00
21361;BME280;10839;43.206;23.550;2023-02-28T07:21:14;98033.72;;;6.56;100.00
21361;BME280;10839;43.206;23.550;2023-02-28T07:23:41;98021.66;;;6.52;100.00
21361;BME280;10839;43.206;23.550;2023-02-28T07:26:12;98034.81;;;6.63;100.00
21361;BME280;10839;43.206;23.550;2023-02-28T07:28:42;98030.91;;;6.57;100.00
21361;BME280;10839;43.206;23.550;2023-02-28T07:31:08;98037.56;;;6.80;100.00
21361;BME280;10839;43.206;23.550;2023-02-28T07:33:34;98033.09;;;6.71;100.00
21361;BME280;10839;43.206;23.550;2023-02-28T07:36:02;98034.28;;;6.59;100.00
21361;BME280;10839;43.206;23.550;2023-02-28T07:38:28;98038.44;;;6.71;100.00
21361;BME280;10839;43.206;23.550;2023-02-28T07:40:54;98029.94;;;6.58;100.00
21361;BME280;10839;43.206;23.550;2023-02-28T07:43:20;98033.72;;;6.56;100.00
21361;BME280;10839;43.206;23.550;2023-02-28T07:45:46;98044.66;;;6.89;100.00
21361;BME280;10839;43.206;23.550;2023-02-28T07:48:12;98033.22;;;6.97;100.00
21361;BME280;10839;43.206;23.550;2023-02-28T07:50:38;98026.16;;;6.78;100.00
21361;BME280;10839;43.206;23.550;2023-02-28T07:53:04;98040.63;;;6.85;100.00
21361;BME280;10839;43.206;23.550;2023-02-28T07:55:31;98050.59;;;7.10;100.00
21361;BME280;10839;43.206;23.550;2023-02-28T07:57:57;98039.41;;;6.97;100.00
21361;BME280;10839;43.206;23.550;2023-02-28T08:00:24;98048.97;;;7.00;100.00
21361;BME280;10839;43.206;23.550;2023-02-28T08:02:50;98039.91;;;7.10;100.00
21361;BME280;10839;43.206;23.550;2023-02-28T08:05:16;98056.06;;;6.91;100.00
21361;BME280;10839;43.206;23.550;2023-02-28T08:07:42;98051.09;;;6.96;100.00
21361;BME280;10839;43.206;23.550;2023-02-28T08:10:08;98046.94;;;7.11;100.00
21361;BME280;10839;43.206;23.550;2023-02-28T08:12:35;98050.34;;;7.04;100.00
21361;BME280;10839;43.206;23.550;2023-02-28T08:15:01;98048.44;;;6.96;100.00
21361;BME280;10839;43.206;23.550;2023-02-28T08:17:27;98047.31;;;7.16;100.00
21361;BME280;10839;43.206;23.550;2023-02-28T08:19:53;98050.88;;;7.07;100.00
21361;BME280;10839;43.206;23.550;2023-02-28T08:22:19;98055.66;;;6.86;100.00
21361;BME280;10839;43.206;23.550;2023-02-28T08:24:45;98052.59;;;7.08;100.00
21361;BME280;10839;43.206;23.550;2023-02-28T08:27:10;98062.06;;;7.20;100.00
21361;BME280;10839;43.206;23.550;2023-02-28T08:29:37;98061.31;;;7.10;100.00
21361;BME280;10839;43.206;23.550;2023-02-28T08:32:05;98059.59;;;7.09;100.00
21361;BME280;10839;43.206;23.550;2023-02-28T08:34:31;98066.16;;;7.42;100.00
21361;BME280;10839;43.206;23.550;2023-02-28T08:36:58;98067.41;;;7.20;100.00
21361;BME280;10839;43.206;23.550;2023-02-28T08:39:24;98066.03;;;7.16;100.00
21361;BME280;10839;43.206;23.550;2023-02-28T08:41:49;98061.94;;;7.39;100.00
21361;BME280;10839;43.206;23.550;2023-02-28T08:44:15;98070.09;;;7.20;100.00
21361;BME280;10839;43.206;23.550;2023-02-28T08:46:41;98068.25;;;7.21;100.00
21361;BME280;10839;43.206;23.550;2023-02-28T08:49:10;98077.75;;;7.33;100.00
21361;BME280;10839;43.206;23.550;2023-02-28T08:51:36;98055.50;;;7.32;100.00
21361;BME280;10839;43.206;23.550;2023-02-28T08:54:02;98068.50;;;7.27;100.00
21361;BME280;10839;43.206;23.550;2023-02-28T08:56:28;98071.50;;;7.42;100.00
21361;BME280;10839;43.206;23.550;2023-02-28T08:58:56;98071.50;;;7.42;100.00
21361;BME280;10839;43.206;23.550;2023-02-28T09:01:24;98081.94;;;7.35;100.00
21361;BME280;10839;43.206;23.550;2023-02-28T09:03:53;98080.75;;;7.47;100.00
21361;BME280;10839;43.206;23.550;2023-02-28T09:06:22;98077.22;;;7.64;100.00
21361;BME280;10839;43.206;23.550;2023-02-28T09:08:49;98065.13;;;7.25;100.00
21361;BME280;10839;43.206;23.550;2023-02-28T09:11:15;98078.31;;;7.36;100.00
21361;BME280;10839;43.206;23.550;2023-02-28T09:13:41;98074.25;;;7.50;100.00
21361;BME280;10839;43.206;23.550;2023-02-28T09:16:11;98066.38;;;7.48;100.00
21361;BME280;10839;43.206;23.550;2023-02-28T09:18:38;98072.75;;;7.20;100.00
21361;BME280;10839;43.206;23.550;2023-02-28T09:21:09;98080.91;;;7.46;100.00
21361;BME280;10839;43.206;23.550;2023-02-28T09:23:35;98075.31;;;7.39;100.00
21361;BME280;10839;43.206;23.550;2023-02-28T09:26:04;98071.56;;;7.32;100.00
21361;BME280;10839;43.206;23.550;2023-02-28T09:28:31;98070.19;;;7.63;100.00
21361;BME280;10839;43.206;23.550;2023-02-28T09:30:57;98063.78;;;7.56;100.00
21361;BME280;10839;43.206;23.550;2023-02-28T09:33:25;98075.69;;;7.44;100.00
21361;BME280;10839;43.206;23.550;2023-02-28T09:35:59;98081.50;;;7.57;100.00
21361;BME280;10839;43.206;23.550;2023-02-28T09:38:26;98075.84;;;7.60;100.00
21361;BME280;10839;43.206;23.550;2023-02-28T09:40:54;98080.75;;;7.47;100.00
21361;BME280;10839;43.206;23.550;2023-02-28T09:43:24;98077.03;;;7.83;100.00
21361;BME280;10839;43.206;23.550;2023-02-28T09:45:59;98077.03;;;7.83;100.00
21361;BME280;10839;43.206;23.550;2023-02-28T09:48:32;98064.09;;;7.53;100.00
21361;BME280;10839;43.206;23.550;2023-02-28T09:53:44;98078.75;;;7.49;100.00
21361;BME280;10839;43.206;23.550;2023-02-28T09:56:11;98070.03;;;7.47;100.00
21361;BME280;10839;43.206;23.550;2023-02-28T09:58:46;98069.50;;;7.61;100.00
21361;BME280;10839;43.206;23.550;2023-02-28T10:06:53;98058.97;;;7.86;100.00
21361;BME280;10839;43.206;23.550;2023-02-28T10:09:25;98057.69;;;7.90;100.00
21361;BME280;10839;43.206;23.550;2023-02-28T10:11:55;98052.13;;;7.65;100.00
21361;BME280;10839;43.206;23.550;2023-02-28T10:14:25;98046.59;;;7.85;100.00
21361;BME280;10839;43.206;23.550;2023-02-28T10:17:11;98064.97;;;7.79;100.00
21361;BME280;10839;43.206;23.550;2023-02-28T10:19:42;98070.47;;;7.60;100.00
21361;BME280;10839;43.206;23.550;2023-02-28T10:24:54;98062.91;;;7.56;100.00
21361;BME280;10839;43.206;23.550;2023-02-28T10:27:24;98062.16;;;7.46;100.00
21361;BME280;10839;43.206;23.550;2023-02-28T10:29:53;98059.94;;;7.76;100.00
21361;BME280;10839;43.206;23.550;2023-02-28T10:32:33;98058.44;;;8.00;100.00
21361;BME280;10839;43.206;23.550;2023-02-28T10:37:42;98059.94;;;7.76;100.00
21361;BME280;10839;43.206;23.550;2023-02-28T10:40:31;98047.81;;;7.72;100.00
21361;BME280;10839;43.206;23.550;2023-02-28T10:43:21;98048.78;;;7.46;100.00
21361;BME280;10839;43.206;23.550;2023-02-28T10:45:58;98058.38;;;7.92;100.00
21361;BME280;10839;43.206;23.550;2023-02-28T10:48:30;98046.75;;;7.65;100.00
21361;BME280;10839;43.206;23.550;2023-02-28T10:50:58;98046.75;;;7.65;100.00
21361;BME280;10839;43.206;23.550;2023-02-28T10:53:29;98044.88;;;7.83;100.00
21361;BME280;10839;43.206;23.550;2023-02-28T10:58:34;98046.63;;;7.49;100.00
21361;BME280;10839;43.206;23.550;2023-02-28T11:01:14;98033.75;;;7.70;100.00
21361;BME280;10839;43.206;23.550;2023-02-28T11:03:41;98037.59;;;7.50;100.00
21361;BME280;10839;43.206;23.550;2023-02-28T11:06:13;98034.75;;;7.69;100.00
21361;BME280;10839;43.206;23.550;2023-02-28T11:08:52;98033.78;;;7.35;100.00
21361;BME280;10839;43.206;23.550;2023-02-28T11:11:20;98040.97;;;7.35;100.00
21361;BME280;10839;43.206;23.550;2023-02-28T11:13:49;98031.00;;;7.62;100.00
21361;BME280;10839;43.206;23.550;2023-02-28T11:16:16;98042.19;;;7.40;100.00
21361;BME280;10839;43.206;23.550;2023-02-28T11:18:50;98029.94;;;7.20;100.00
21361;BME280;10839;43.206;23.550;2023-02-28T11:21:20;98038.22;;;7.44;100.00
21361;BME280;10839;43.206;23.550;2023-02-28T11:23:48;98037.97;;;7.20;100.00
21361;BME280;10839;43.206;23.550;2023-02-28T11:26:15;98037.00;;;7.21;100.00
21361;BME280;10839;43.206;23.550;2023-02-28T11:28:42;98028.81;;;7.58;100.00
21361;BME280;10839;43.206;23.550;2023-02-28T11:36:23;98038.72;;;7.65;100.00
21361;BME280;10839;43.206;23.550;2023-02-28T11:38:54;98034.25;;;7.48;100.00
21361;BME280;10839;43.206;23.550;2023-02-28T11:47:33;98044.47;;;7.35;100.00
21361;BME280;10839;43.206;23.550;2023-02-28T11:52:57;98050.38;;;7.39;100.00
21361;BME280;10839;43.206;23.550;2023-02-28T11:55:37;98044.16;;;7.03;100.00
21361;BME280;10839;43.206;23.550;2023-02-28T12:03:28;98050.69;;;7.18;100.00
21361;BME280;10839;43.206;23.550;2023-02-28T12:06:18;98051.97;;;7.14;100.00
21361;BME280;10839;43.206;23.550;2023-02-28T12:08:54;98056.56;;;7.39;100.00
21361;BME280;10839;43.206;23.550;2023-02-28T12:11:38;98045.25;;;7.10;100.00
21361;BME280;10839;43.206;23.550;2023-02-28T12:20:49;98040.78;;;7.01;100.00
21361;BME280;10839;43.206;23.550;2023-02-28T12:28:02;98039.16;;;6.91;100.00
21361;BME280;10839;43.206;23.550;2023-02-28T12:30:34;98033.16;;;7.06;100.00
21361;BME280;10839;43.206;23.550;2023-02-28T12:33:14;98039.94;;;7.01;100.00
21361;BME280;10839;43.206;23.550;2023-02-28T12:35:59;98036.50;;;6.91;100.00
21361;BME280;10839;43.206;23.550;2023-02-28T12:38:39;98040.66;;;7.20;100.00
21361;BME280;10839;43.206;23.550;2023-02-28T12:44:03;98048.00;;;7.18;100.00
21361;BME280;10839;43.206;23.550;2023-02-28T12:46:36;98043.09;;;6.96;100.00
21361;BME280;10839;43.206;23.550;2023-02-28T12:49:09;98048.75;;;6.93;100.00
21361;BME280;10839;43.206;23.550;2023-02-28T12:51:38;98039.44;;;7.32;100.00
21361;BME280;10839;43.206;23.550;2023-02-28T12:56:51;98039.84;;;6.75;100.00
21361;BME280;10839;43.206;23.550;2023-02-28T12:59:32;98038.97;;;7.19;100.00
21361;BME280;10839;43.206;23.550;2023-02-28T13:10:45;98032.38;;;6.96;100.00
21361;BME280;10839;43.206;23.550;2023-02-28T13:13:20;98041.91;;;6.99;100.00
21361;BME280;10839;43.206;23.550;2023-02-28T13:18:40;98031.28;;;6.89;100.00
21361;BME280;10839;43.206;23.550;2023-02-28T13:21:17;98026.66;;;7.09;100.00
21361;BME280;10839;43.206;23.550;2023-02-28T13:34:32;98022.75;;;7.03;100.00
21361;BME280;10839;43.206;23.550;2023-02-28T13:47:44;98016.50;;;6.40;100.00
21361;BME280;10839;43.206;23.550;2023-02-28T14:04:41;98010.41;;;6.75;100.00
21361;BME280;10839;43.206;23.550;2023-02-28T14:07:24;98012.25;;;6.75;100.00
21361;BME280;10839;43.206;23.550;2023-02-28T14:09:59;98023.19;;;6.54;100.00
21361;BME280;10839;43.206;23.550;2023-02-28T14:13:03;98016.47;;;6.50;100.00
21361;BME280;10839;43.206;23.550;2023-02-28T14:16:00;98012.88;;;6.59;100.00
21361;BME280;10839;43.206;23.550;2023-02-28T14:18:37;98005.06;;;6.48;100.00
21361;BME280;10839;43.206;23.550;2023-02-28T14:26:06;98001.88;;;6.62;100.00
21361;BME280;10839;43.206;23.550;2023-02-28T14:28:53;98008.28;;;6.79;100.00
21361;BME280;10839;43.206;23.550;2023-02-28T14:31:29;98008.63;;;6.66;100.00
21361;BME280;10839;43.206;23.550;2023-02-28T14:34:31;98022.41;;;6.71;100.00
21361;BME280;10839;43.206;23.550;2023-02-28T14:37:02;98015.84;;;6.83;100.00
21361;BME280;10839;43.206;23.550;2023-02-28T14:39:30;98013.09;;;6.75;100.00
21361;BME280;10839;43.206;23.550;2023-02-28T14:41:56;98021.31;;;6.64;100.00
21361;BME280;10839;43.206;23.550;2023-02-28T14:44:29;98023.66;;;6.67;100.00
21361;BME280;10839;43.206;23.550;2023-02-28T14:46:57;98017.91;;;6.72;100.00
21361;BME280;10839;43.206;23.550;2023-02-28T14:52:27;98017.44;;;6.49;100.00
21361;BME280;10839;43.206;23.550;2023-02-28T14:55:01;98011.13;;;6.50;100.00
21361;BME280;10839;43.206;23.550;2023-02-28T14:57:32;98008.94;;;6.63;100.00
21361;BME280;10839;43.206;23.550;2023-02-28T15:00:16;98019.94;;;6.60;100.00
21361;BME280;10839;43.206;23.550;2023-02-28T15:02:43;98021.31;;;6.64;100.00
21361;BME280;10839;43.206;23.550;2023-02-28T15:07:39;98037.03;;;6.67;100.00
21361;BME280;10839;43.206;23.550;2023-02-28T15:10:23;98031.34;;;6.80;100.00
21361;BME280;10839;43.206;23.550;2023-02-28T15:12:58;98041.91;;;6.54;100.00
21361;BME280;10839;43.206;23.550;2023-02-28T15:15:56;98033.69;;;6.65;100.00
21361;BME280;10839;43.206;23.550;2023-02-28T15:18:46;98034.34;;;6.49;100.00
21361;BME280;10839;43.206;23.550;2023-02-28T15:21:21;98038.00;;;6.48;100.00
21361;BME280;10839;43.206;23.550;2023-02-28T15:23:59;98040.72;;;6.66;100.00
21361;BME280;10839;43.206;23.550;2023-02-28T15:26:32;98048.09;;;6.55;100.00
21361;BME280;10839;43.206;23.550;2023-02-28T15:29:06;98046.75;;;6.41;100.00